Time;durP1;ratioP1;P1;durP2;ratioP2;P2;SDS_P1;SDS_P2;PMS_P1;PMS_P2;Temp;Humidity;BMP_temperature;BMP_pressure;BME280_temperature;BME280_humidity;BME280_pressure;Samples;Min_cycle;Max_cycle;Signal;HPM_P1;HPM_P2
2021/06/29 00:01:01;;;;;;;12.60;11.60;;;18.00;99.90;;;;;;5013028;28;20815;-67
2021/06/29 00:03:27;;;;;;;13.10;10.50;;;17.90;99.90;;;;;;5013133;28;20417;-67
2021/06/29 00:05:53;;;;;;;8.90;8.30;;;17.90;99.90;;;;;;5012980;28;20163;-67
2021/06/29 00:08:18;;;;;;;10.67;9.67;;;17.80;99.90;;;;;;5012770;28;20171;-66
2021/06/29 00:10:44;;;;;;;10.73;9.90;;;17.80;99.90;;;;;;5012678;28;20191;-66
2021/06/29 00:13:10;;;;;;;12.47;11.50;;;17.70;99.90;;;;;;5012752;28;20183;-67
2021/06/29 00:15:36;;;;;;;12.07;11.27;;;17.70;99.90;;;;;;5012862;28;20167;-67
2021/06/29 00:18:03;;;;;;;11.27;10.30;;;17.60;99.90;;;;;;5012623;28;20409;-67
2021/06/29 00:20:29;;;;;;;12.00;11.10;;;17.60;99.90;;;;;;5011781;28;20438;-67
2021/06/29 00:22:55;;;;;;;11.27;10.47;;;17.70;99.90;;;;;;5012618;28;20417;-67
2021/06/29 00:25:22;;;;;;;11.30;10.50;;;17.80;99.90;;;;;;5012665;28;20169;-67
2021/06/29 00:27:48;;;;;;;10.27;9.27;;;17.90;99.90;;;;;;5012532;28;20167;-67
2021/06/29 00:30:14;;;;;;;11.13;10.23;;;17.80;99.90;;;;;;5012237;28;20421;-67
2021/06/29 00:32:40;;;;;;;9.40;8.70;;;17.90;99.90;;;;;;5012571;28;20464;-67
2021/06/29 00:35:06;;;;;;;9.90;9.17;;;17.90;99.90;;;;;;5012552;28;20206;-66
2021/06/29 00:37:32;;;;;;;9.23;8.50;;;17.90;99.90;;;;;;5007991;28;20414;-67
2021/06/29 00:39:58;;;;;;;9.50;8.90;;;17.90;99.90;;;;;;4992794;28;20422;-67
2021/06/29 00:42:23;;;;;;;9.37;8.67;;;17.80;99.90;;;;;;4992692;28;20270;-67
2021/06/29 00:44:49;;;;;;;8.70;8.10;;;17.80;99.90;;;;;;4992749;28;20255;-67
2021/06/29 00:47:15;;;;;;;8.20;7.70;;;17.90;99.90;;;;;;4992683;28;20168;-67
2021/06/29 00:49:41;;;;;;;9.50;8.70;;;17.90;99.90;;;;;;4992346;28;20222;-66
2021/06/29 00:52:11;;;;;;;9.27;8.57;;;18.00;99.90;;;;;;4992605;28;20298;-67
2021/06/29 00:54:37;;;;;;;8.83;8.33;;;18.10;99.90;;;;;;4992609;28;20776;-67
2021/06/29 00:57:03;;;;;;;9.20;8.53;;;18.10;99.90;;;;;;4992724;28;20414;-67
2021/06/29 00:59:31;;;;;;;8.93;8.33;;;18.10;99.90;;;;;;4992191;28;20556;-67
2021/06/29 01:01:57;;;;;;;8.90;8.27;;;18.20;99.90;;;;;;4992459;28;20442;-66
2021/06/29 01:04:23;;;;;;;8.23;7.73;;;18.20;99.90;;;;;;4992927;28;20931;-67
2021/06/29 01:06:49;;;;;;;8.63;7.77;;;18.30;99.90;;;;;;4992499;28;20172;-67
2021/06/29 01:09:14;;;;;;;8.57;7.97;;;18.10;99.90;;;;;;4992630;28;20179;-67
2021/06/29 01:11:40;;;;;;;8.00;7.40;;;18.00;99.90;;;;;;4992359;28;20701;-66
2021/06/29 01:14:12;;;;;;;8.20;7.53;;;18.00;99.90;;;;;;4992533;28;20163;-67
2021/06/29 01:16:39;;;;;;;7.67;7.17;;;18.00;99.90;;;;;;4992523;28;20541;-67
2021/06/29 01:19:05;;;;;;;7.50;7.00;;;17.90;99.90;;;;;;4992207;28;20418;-66
2021/06/29 01:21:52;;;;;;;8.07;7.47;;;17.80;99.90;;;;;;4992433;28;20446;-67
2021/06/29 01:24:31;;;;;;;7.83;7.33;;;17.80;99.90;;;;;;4992540;28;20306;-67
2021/06/29 01:29:41;;;;;;;8.80;7.60;;;17.70;99.90;;;;;;4992217;28;20423;-66
2021/06/29 01:32:12;;;;;;;8.57;7.87;;;17.70;99.90;;;;;;4995956;28;20520;-66
2021/06/29 01:34:37;;;;;;;8.80;8.03;;;17.60;99.90;;;;;;4996232;28;20835;-66
2021/06/29 01:37:03;;;;;;;7.80;7.27;;;17.60;99.90;;;;;;4996630;28;20423;-66
2021/06/29 01:39:29;;;;;;;7.37;6.83;;;17.70;99.90;;;;;;5015503;28;20172;-66
2021/06/29 01:41:54;;;;;;;7.73;6.83;;;17.80;99.90;;;;;;5015575;28;20221;-66
2021/06/29 01:44:26;;;;;;;8.60;8.00;;;17.80;99.90;;;;;;5015749;28;20641;-67
2021/06/29 01:46:54;;;;;;;8.60;7.70;;;17.70;99.90;;;;;;5015617;28;20182;-66
2021/06/29 01:49:27;;;;;;;7.50;7.00;;;17.60;99.90;;;;;;5015349;28;20500;-66
2021/06/29 01:51:54;;;;;;;7.73;7.00;;;17.70;99.90;;;;;;5015316;28;20566;-66
2021/06/29 01:54:21;;;;;;;8.17;7.57;;;17.70;99.90;;;;;;5015414;28;20927;-66
2021/06/29 01:56:48;;;;;;;7.50;6.80;;;17.70;99.90;;;;;;5015360;28;20762;-67
2021/06/29 01:59:17;;;;;;;5.93;5.53;;;17.80;99.90;;;;;;5014846;28;20927;-66
2021/06/29 02:01:43;;;;;;;6.90;6.50;;;17.70;99.90;;;;;;5015264;28;20709;-67
2021/06/29 02:04:10;;;;;;;7.10;6.60;;;17.60;99.90;;;;;;5015219;28;20422;-67
2021/06/29 02:06:36;;;;;;;8.30;7.73;;;17.50;99.90;;;;;;5015264;28;20525;-66
2021/06/29 02:09:02;;;;;;;7.47;6.97;;;17.50;99.90;;;;;;5014913;28;20516;-66
2021/06/29 02:11:27;;;;;;;7.27;6.80;;;17.60;99.90;;;;;;5015004;28;20210;-66
2021/06/29 02:13:53;;;;;;;6.73;6.23;;;17.60;99.90;;;;;;5013665;28;20270;-66
2021/06/29 02:16:18;;;;;;;7.93;6.20;;;17.60;99.90;;;;;;5015377;28;20594;-66
2021/06/29 02:18:44;;;;;;;7.27;6.80;;;17.60;99.90;;;;;;5014748;28;20604;-66
2021/06/29 02:21:12;;;;;;;7.17;6.70;;;17.60;99.90;;;;;;5014939;28;20260;-66
2021/06/29 02:23:37;;;;;;;7.27;6.57;;;17.50;99.90;;;;;;5014927;28;20174;-66
2021/06/29 02:26:03;;;;;;;7.27;6.67;;;17.40;99.90;;;;;;5014835;28;20429;-66
2021/06/29 02:28:28;;;;;;;7.90;7.30;;;17.40;99.90;;;;;;5014341;28;20280;-66
2021/06/29 02:30:54;;;;;;;7.17;6.77;;;17.50;99.90;;;;;;5014734;28;20543;-66
2021/06/29 02:33:19;;;;;;;8.53;7.87;;;17.50;99.90;;;;;;5013495;28;20171;-66
2021/06/29 02:35:45;;;;;;;7.50;6.90;;;17.60;99.90;;;;;;5014610;28;20175;-66
2021/06/29 02:38:11;;;;;;;6.97;6.50;;;17.60;99.90;;;;;;5005318;28;20172;-66
2021/06/29 02:40:36;;;;;;;7.60;6.90;;;17.60;99.90;;;;;;4994719;28;20554;-66
2021/06/29 02:43:02;;;;;;;7.00;6.50;;;17.70;99.90;;;;;;4994013;28;20168;-67
2021/06/29 02:45:28;;;;;;;7.53;7.03;;;17.70;99.90;;;;;;4994945;28;20167;-66
2021/06/29 02:47:58;;;;;;;6.83;6.23;;;17.80;99.90;;;;;;4995120;28;20238;-66
2021/06/29 02:50:25;;;;;;;8.37;7.03;;;17.80;99.90;;;;;;4994743;28;20203;-66
2021/06/29 02:52:50;;;;;;;6.30;5.90;;;17.80;99.90;;;;;;4994707;28;20461;-66
2021/06/29 02:55:16;;;;;;;7.77;7.23;;;17.80;99.90;;;;;;4994692;28;20494;-66
2021/06/29 02:57:44;;;;;;;7.47;6.97;;;17.70;99.90;;;;;;4993299;28;20576;-66
2021/06/29 03:00:16;;;;;;;8.50;7.80;;;17.70;99.90;;;;;;4994213;28;20798;-66
2021/06/29 03:02:42;;;;;;;8.37;7.40;;;17.70;99.90;;;;;;4994669;28;20449;-66
2021/06/29 03:05:08;;;;;;;8.20;7.60;;;17.80;99.90;;;;;;4994521;28;20943;-66
2021/06/29 03:07:34;;;;;;;8.40;7.80;;;17.70;99.90;;;;;;4994473;28;20622;-66
2021/06/29 03:10:00;;;;;;;7.67;7.17;;;17.80;99.90;;;;;;4994108;28;20415;-66
2021/06/29 03:12:25;;;;;;;8.13;7.53;;;17.80;99.90;;;;;;4994175;28;20211;-66
2021/06/29 03:14:56;;;;;;;9.13;8.33;;;17.80;99.90;;;;;;4994359;28;20180;-66
2021/06/29 03:17:21;;;;;;;8.53;7.83;;;17.70;99.90;;;;;;4994358;28;20160;-66
2021/06/29 03:19:47;;;;;;;9.67;8.53;;;17.70;99.90;;;;;;4994008;28;20411;-66
2021/06/29 03:22:13;;;;;;;9.20;8.50;;;17.70;99.90;;;;;;4994215;28;20218;-66
2021/06/29 03:24:38;;;;;;;7.90;7.33;;;17.70;99.90;;;;;;4994059;28;20251;-66
2021/06/29 03:27:06;;;;;;;9.33;8.73;;;17.70;99.90;;;;;;4994056;28;20172;-66
2021/06/29 03:29:31;;;;;;;7.47;6.87;;;17.70;99.90;;;;;;4993913;28;20180;-66
2021/06/29 03:31:57;;;;;;;8.40;7.70;;;17.70;99.90;;;;;;4992605;28;20466;-66
2021/06/29 03:34:23;;;;;;;9.30;8.70;;;17.80;99.90;;;;;;4993972;28;20225;-66
2021/06/29 03:36:48;;;;;;;8.13;7.53;;;17.70;99.90;;;;;;4993886;28;20262;-66
2021/06/29 03:39:14;;;;;;;11.17;10.07;;;17.70;99.90;;;;;;5011619;28;20171;-66
2021/06/29 03:41:39;;;;;;;8.63;8.03;;;17.80;99.90;;;;;;5013303;28;20205;-66
2021/06/29 03:44:05;;;;;;;11.93;9.93;;;17.80;99.90;;;;;;5013451;28;20174;-66
2021/06/29 03:46:31;;;;;;;9.23;8.43;;;17.80;99.90;;;;;;5013344;28;20179;-66
2021/06/29 03:48:56;;;;;;;9.13;8.10;;;17.90;99.90;;;;;;5013117;28;20199;-66
2021/06/29 03:51:22;;;;;;;7.80;7.20;;;17.80;99.90;;;;;;5013535;28;20213;-66
2021/06/29 03:53:47;;;;;;;8.70;8.00;;;17.70;99.90;;;;;;5012074;28;20171;-66
2021/06/29 03:56:28;;;;;;;11.23;10.43;;;17.70;99.90;;;;;;5013127;28;20167;-66
2021/06/29 03:58:56;;;;;;;10.30;9.50;;;17.80;99.90;;;;;;5012930;28;20163;-66
2021/06/29 04:01:22;;;;;;;8.67;8.10;;;17.80;99.90;;;;;;5013073;28;20438;-66
2021/06/29 04:03:48;;;;;;;8.47;7.70;;;17.90;99.90;;;;;;5013473;28;20433;-66
2021/06/29 04:06:14;;;;;;;8.30;7.63;;;17.90;99.90;;;;;;5012883;28;20167;-66
2021/06/29 04:08:41;;;;;;;8.30;7.60;;;18.00;99.90;;;;;;5012683;28;20171;-66
2021/06/29 04:11:06;;;;;;;7.83;7.33;;;18.10;99.90;;;;;;5012777;28;20445;-66
2021/06/29 04:13:32;;;;;;;8.30;7.70;;;18.10;99.90;;;;;;5012838;28;20919;-66
2021/06/29 04:15:57;;;;;;;8.60;8.00;;;18.10;99.90;;;;;;5012840;28;20171;-66
2021/06/29 04:18:23;;;;;;;7.60;6.30;;;18.10;99.90;;;;;;5012556;28;20662;-66
2021/06/29 04:20:48;;;;;;;8.43;7.43;;;18.10;99.90;;;;;;5013132;28;20611;-66
2021/06/29 04:23:14;;;;;;;8.07;7.47;;;18.20;99.90;;;;;;5012637;28;20190;-66
2021/06/29 04:25:39;;;;;;;7.60;7.00;;;18.10;99.90;;;;;;5012829;28;20174;-66
2021/06/29 04:28:05;;;;;;;8.07;7.30;;;18.00;99.90;;;;;;5012562;28;20167;-66
2021/06/29 04:30:31;;;;;;;7.13;6.63;;;18.00;99.90;;;;;;5012280;28;20706;-66
2021/06/29 04:32:56;;;;;;;7.13;6.63;;;17.90;99.90;;;;;;5008409;28;20211;-66
2021/06/29 04:35:22;;;;;;;8.77;8.13;;;17.80;99.90;;;;;;4992912;28;20535;-66
2021/06/29 04:37:48;;;;;;;8.50;7.80;;;17.80;99.90;;;;;;4999266;28;20179;-66
2021/06/29 04:40:14;;;;;;;7.83;7.23;;;17.80;99.90;;;;;;5012300;28;20633;-66
2021/06/29 04:42:39;;;;;;;7.70;7.20;;;17.80;99.90;;;;;;5012349;28;20182;-67
2021/06/29 04:45:05;;;;;;;7.50;6.97;;;17.70;99.90;;;;;;5012436;28;20553;-66
2021/06/29 04:47:44;;;;;;;7.00;6.50;;;17.80;99.90;;;;;;5012388;28;20534;-66
2021/06/29 04:50:11;;;;;;;7.70;7.10;;;17.70;99.90;;;;;;5011796;28;20931;-66
2021/06/29 04:52:36;;;;;;;7.40;6.90;;;17.70;99.90;;;;;;5007004;28;20473;-66
2021/06/29 04:55:03;;;;;;;7.50;6.90;;;17.80;99.90;;;;;;4992705;28;20787;-66
2021/06/29 04:57:29;;;;;;;8.23;7.63;;;17.90;99.90;;;;;;4992475;28;20189;-66
2021/06/29 04:59:54;;;;;;;9.40;8.63;;;18.00;99.90;;;;;;4992708;28;20410;-66
2021/06/29 05:02:20;;;;;;;10.60;7.07;;;18.10;99.90;;;;;;4992504;28;20562;-66
2021/06/29 05:04:45;;;;;;;8.27;7.60;;;18.20;99.90;;;;;;4992060;28;20226;-66
2021/06/29 05:07:11;;;;;;;7.37;6.77;;;18.30;99.90;;;;;;4993908;28;20262;-66
2021/06/29 05:09:36;;;;;;;7.57;7.07;;;18.40;99.90;;;;;;5002842;28;20223;-66
2021/06/29 05:12:02;;;;;;;6.57;6.03;;;18.40;99.90;;;;;;4992297;28;20854;-66
2021/06/29 05:14:28;;;;;;;7.83;7.10;;;18.30;99.90;;;;;;4997846;28;20171;-66
2021/06/29 05:16:53;;;;;;;7.37;6.87;;;18.30;99.90;;;;;;5007767;28;20175;-66
2021/06/29 05:19:19;;;;;;;7.93;7.27;;;18.30;99.90;;;;;;4992001;28;20181;-66
2021/06/29 05:21:44;;;;;;;6.03;5.63;;;18.30;99.90;;;;;;4998836;28;20195;-66
2021/06/29 05:24:10;;;;;;;6.63;6.03;;;18.40;99.90;;;;;;5000777;28;20194;-66
2021/06/29 05:26:35;;;;;;;7.87;7.30;;;18.40;99.90;;;;;;5011882;28;20178;-66
2021/06/29 05:29:02;;;;;;;7.50;7.00;;;18.40;99.90;;;;;;5011405;28;20202;-66
2021/06/29 05:31:28;;;;;;;7.30;6.80;;;18.30;99.90;;;;;;5011792;28;20573;-66
2021/06/29 05:33:53;;;;;;;7.07;6.60;;;18.40;99.90;;;;;;5011777;28;20460;-66
2021/06/29 05:36:19;;;;;;;7.50;7.00;;;18.40;99.90;;;;;;5011900;28;20175;-66
2021/06/29 05:38:44;;;;;;;7.90;7.20;;;18.40;99.90;;;;;;4997524;28;20222;-66
2021/06/29 05:41:10;;;;;;;8.77;8.13;;;18.50;99.90;;;;;;4992167;28;20278;-66
2021/06/29 05:43:35;;;;;;;7.47;6.97;;;18.40;99.90;;;;;;4992198;28;20164;-66
2021/06/29 05:46:02;;;;;;;7.97;7.33;;;18.30;99.90;;;;;;4992655;28;20179;-67
2021/06/29 05:48:31;;;;;;;7.90;7.20;;;18.40;99.90;;;;;;4997545;28;20510;-66
2021/06/29 05:50:57;;;;;;;8.27;7.70;;;18.60;99.90;;;;;;5011401;28;20826;-66
2021/06/29 05:53:23;;;;;;;9.40;8.70;;;18.60;99.90;;;;;;5000642;28;20430;-66
2021/06/29 05:55:48;;;;;;;7.13;6.63;;;18.80;99.90;;;;;;4992086;28;20638;-66
2021/06/29 05:58:15;;;;;;;30.50;27.53;;;19.00;99.90;;;;;;4991967;28;20179;-66
2021/06/29 06:00:41;;;;;;;13.23;12.13;;;19.00;99.90;;;;;;4991876;28;20196;-66
2021/06/29 06:03:06;;;;;;;8.07;7.40;;;19.10;99.90;;;;;;4991987;28;20438;-66
2021/06/29 06:05:32;;;;;;;8.17;7.50;;;19.20;99.90;;;;;;5002965;28;20186;-67
2021/06/29 06:07:58;;;;;;;8.47;7.83;;;19.40;99.90;;;;;;4996338;28;20183;-66
2021/06/29 06:10:23;;;;;;;6.27;5.77;;;19.50;99.90;;;;;;4991688;28;20716;-66
2021/06/29 06:12:49;;;;;;;5.93;5.43;;;19.60;99.90;;;;;;4991879;28;20250;-66
2021/06/29 06:15:14;;;;;;;7.17;6.53;;;19.80;99.90;;;;;;4991952;28;20173;-66
2021/06/29 06:17:41;;;;;;;6.10;5.60;;;20.00;99.90;;;;;;4995618;28;20669;-66
2021/06/29 06:20:08;;;;;;;7.20;6.67;;;20.10;99.90;;;;;;4995206;28;20171;-66
2021/06/29 06:22:34;;;;;;;6.27;5.87;;;20.30;99.90;;;;;;4995509;28;20435;-67
2021/06/29 06:24:59;;;;;;;7.20;6.60;;;20.40;99.90;;;;;;4995544;28;20426;-66
2021/06/29 06:27:26;;;;;;;6.37;5.87;;;20.50;99.90;;;;;;4995192;28;20211;-67
2021/06/29 06:29:51;;;;;;;8.40;6.33;;;20.70;99.90;;;;;;4994911;28;20225;-66
2021/06/29 06:32:17;;;;;;;6.33;5.73;;;20.80;99.90;;;;;;4997747;28;20557;-66
2021/06/29 06:34:42;;;;;;;5.93;5.60;;;21.00;99.90;;;;;;5004128;28;20205;-66
2021/06/29 06:37:08;;;;;;;5.03;4.73;;;21.00;99.90;;;;;;4996115;28;20171;-65
2021/06/29 06:39:33;;;;;;;5.07;4.53;;;21.10;99.90;;;;;;5014294;28;20171;-66
2021/06/29 06:41:59;;;;;;;5.80;5.30;;;21.20;99.90;;;;;;5004566;28;20195;-66
2021/06/29 06:44:24;;;;;;;4.10;3.90;;;21.30;99.90;;;;;;5007818;28;20179;-66
2021/06/29 06:46:50;;;;;;;3.97;3.67;;;21.40;99.90;;;;;;4997458;28;20262;-65
2021/06/29 06:49:16;;;;;;;4.70;3.90;;;21.50;99.90;;;;;;5000732;28;20194;-66
2021/06/29 06:51:41;;;;;;;4.03;3.73;;;21.70;99.90;;;;;;5007600;28;20214;-66
2021/06/29 06:54:07;;;;;;;8.60;4.53;;;22.00;99.90;;;;;;5010919;28;20203;-66
2021/06/29 06:56:32;;;;;;;6.00;5.60;;;22.00;99.90;;;;;;5002297;28;20190;-66
2021/06/29 06:58:58;;;;;;;4.60;4.30;;;21.90;99.90;;;;;;5013925;28;20293;-65
2021/06/29 07:01:23;;;;;;;5.07;4.67;;;22.00;99.90;;;;;;5009855;28;20203;-66
2021/06/29 07:03:49;;;;;;;3.90;3.60;;;22.20;99.90;;;;;;5000830;28;20195;-64
2021/06/29 07:06:14;;;;;;;3.90;3.70;;;22.50;99.90;;;;;;4993202;28;20196;-65
2021/06/29 07:08:41;;;;;;;4.97;4.00;;;22.90;99.90;;;;;;5029292;28;20207;-66
2021/06/29 07:11:07;;;;;;;3.87;3.60;;;23.30;99.90;;;;;;5013605;28;20191;-64
2021/06/29 07:13:33;;;;;;;3.50;3.20;;;23.50;99.90;;;;;;5013341;28;20791;-66
2021/06/29 07:15:59;;;;;;;5.40;3.13;;;23.30;99.90;;;;;;4999889;28;20438;-66
2021/06/29 07:18:24;;;;;;;5.40;3.67;;;23.20;99.90;;;;;;5007728;28;20641;-65
2021/06/29 07:20:50;;;;;;;4.23;3.60;;;23.30;99.90;;;;;;5016397;28;20199;-66
2021/06/29 07:23:17;;;;;;;6.33;4.00;;;23.10;99.90;;;;;;5033261;28;20261;-66
2021/06/29 07:25:42;;;;;;;3.73;3.53;;;23.00;99.90;;;;;;5020547;28;20194;-65
2021/06/29 07:28:08;;;;;;;3.10;2.90;;;23.10;99.90;;;;;;5012932;28;20421;-65
2021/06/29 07:30:36;;;;;;;3.10;2.53;;;23.10;99.90;;;;;;5011410;28;20194;-66
2021/06/29 07:33:03;;;;;;;3.17;2.97;;;23.10;99.90;;;;;;4994135;28;20474;-66
2021/06/29 07:35:30;;;;;;;3.20;2.90;;;23.20;99.90;;;;;;5007918;28;20448;-65
2021/06/29 07:37:56;;;;;;;2.50;2.40;;;23.50;99.90;;;;;;5006182;28;20431;-65
2021/06/29 07:40:22;;;;;;;4.03;2.83;;;23.90;99.90;;;;;;4993429;28;20450;-66
2021/06/29 07:42:48;;;;;;;2.97;2.77;;;24.20;99.90;;;;;;5000883;28;20938;-65
2021/06/29 07:45:14;;;;;;;3.10;2.90;;;24.50;99.90;;;;;;5004590;28;20444;-65
2021/06/29 07:47:40;;;;;;;2.97;2.47;;;24.80;99.90;;;;;;5010119;28;20428;-66
2021/06/29 07:50:10;;;;;;;2.93;2.73;;;24.80;99.90;;;;;;5002009;28;20183;-66
2021/06/29 07:52:36;;;;;;;2.57;2.40;;;24.60;99.90;;;;;;4996081;28;20457;-65
2021/06/29 07:55:04;;;;;;;2.57;2.37;;;24.60;99.90;;;;;;5009699;28;20945;-65
2021/06/29 07:57:29;;;;;;;2.50;2.30;;;24.30;99.90;;;;;;5009693;28;20433;-64
2021/06/29 07:59:55;;;;;;;3.23;2.20;;;24.20;99.90;;;;;;5009653;28;20413;-65
2021/06/29 08:02:20;;;;;;;2.50;2.40;;;24.20;99.90;;;;;;5008924;28;20239;-65
2021/06/29 08:04:47;;;;;;;3.13;2.30;;;24.70;99.90;;;;;;5009748;28;20179;-65
2021/06/29 08:07:12;;;;;;;2.60;2.50;;;24.90;99.90;;;;;;5010676;28;20687;-67
2021/06/29 08:09:38;;;;;;;5.20;2.77;;;24.90;99.90;;;;;;5011262;28;20426;-66
2021/06/29 08:12:04;;;;;;;2.70;2.60;;;24.90;99.90;;;;;;5012631;28;20206;-66
2021/06/29 08:14:30;;;;;;;3.43;2.67;;;24.80;99.90;;;;;;5012721;28;20195;-66
2021/06/29 08:16:56;;;;;;;3.00;2.70;;;25.00;99.90;;;;;;5013073;28;20453;-67
2021/06/29 08:19:21;;;;;;;2.80;2.67;;;25.20;99.90;;;;;;5012719;28;20173;-68
2021/06/29 08:21:47;;;;;;;4.40;3.30;;;25.30;99.90;;;;;;5012605;28;20558;-66
2021/06/29 08:24:13;;;;;;;3.50;2.73;;;25.30;99.90;;;;;;5012708;28;20612;-66
2021/06/29 08:26:38;;;;;;;2.30;2.00;;;25.30;99.90;;;;;;5012573;28;20660;-67
2021/06/29 08:29:04;;;;;;;2.10;2.00;;;25.50;99.90;;;;;;5012286;28;20175;-65
2021/06/29 08:31:30;;;;;;;3.30;2.70;;;25.80;99.90;;;;;;5012433;28;20539;-66
2021/06/29 08:33:55;;;;;;;1.70;1.60;;;26.10;99.90;;;;;;5012277;28;20159;-66
2021/06/29 08:36:22;;;;;;;1.93;1.83;;;26.30;99.90;;;;;;5012106;28;20420;-65
2021/06/29 08:38:48;;;;;;;2.33;2.23;;;26.30;99.90;;;;;;5026836;28;20174;-66
2021/06/29 08:41:15;;;;;;;2.10;1.90;;;26.10;99.90;;;;;;5031266;28;20436;-65
2021/06/29 08:43:41;;;;;;;3.60;2.27;;;26.10;99.90;;;;;;5021698;28;20427;-66
2021/06/29 08:46:07;;;;;;;2.33;2.23;;;26.10;99.90;;;;;;5012382;28;20418;-65
2021/06/29 08:48:33;;;;;;;2.03;1.93;;;26.50;99.90;;;;;;5019935;28;20450;-66
2021/06/29 08:51:06;;;;;;;2.63;2.43;;;26.90;99.90;;;;;;5008448;28;20462;-66
2021/06/29 08:53:33;;;;;;;1.73;1.63;;;26.90;99.90;;;;;;4992157;28;20189;-64
2021/06/29 08:56:00;;;;;;;1.87;1.77;;;26.60;99.90;;;;;;5005373;28;20990;-65
2021/06/29 08:58:28;;;;;;;1.70;1.60;;;26.70;99.90;;;;;;5008293;28;20501;-65
2021/06/29 09:00:54;;;;;;;2.87;2.30;;;26.30;99.90;;;;;;5009976;28;20955;-66
2021/06/29 09:03:21;;;;;;;2.33;2.13;;;26.30;99.90;;;;;;5008907;28;20422;-65
2021/06/29 09:05:48;;;;;;;2.47;1.80;;;26.60;99.90;;;;;;5008912;28;20800;-65
2021/06/29 09:08:17;;;;;;;2.40;2.20;;;27.00;99.90;;;;;;4997313;28;20936;-65
2021/06/29 09:11:03;;;;;;;1.80;1.70;;;27.40;99.90;;;;;;4988978;28;20445;-65
2021/06/29 09:13:30;;;;;;;1.90;1.80;;;27.70;99.90;;;;;;5022531;28;20814;-65
2021/06/29 09:15:56;;;;;;;1.90;1.80;;;27.70;99.90;;;;;;5015067;28;20934;-66
2021/06/29 09:18:31;;;;;;;2.03;1.93;;;27.90;99.90;;;;;;5008378;28;20452;-65
2021/06/29 09:21:00;;;;;;;2.17;2.07;;;28.00;99.90;;;;;;5007250;28;20468;-64
2021/06/29 09:23:29;;;;;;;2.10;2.00;;;28.00;99.90;;;;;;5008180;28;20472;-65
2021/06/29 09:26:12;;;;;;;2.63;2.00;;;28.00;99.90;;;;;;5003837;28;20435;-65
2021/06/29 09:28:39;;;;;;;2.20;2.10;;;28.20;99.90;;;;;;4989052;28;20425;-65
2021/06/29 09:31:14;;;;;;;2.20;2.10;;;28.30;99.90;;;;;;4994614;28;20441;-66
2021/06/29 09:33:44;;;;;;;2.33;1.77;;;28.80;99.90;;;;;;5011665;28;20427;-65
2021/06/29 09:36:15;;;;;;;3.00;2.10;;;29.20;99.60;;;;;;5011577;28;20426;-66
2021/06/29 09:38:44;;;;;;;2.70;2.50;;;29.30;98.60;;;;;;5009429;28;20797;-66
2021/06/29 09:41:24;;;;;;;2.03;1.93;;;29.20;98.60;;;;;;5010764;28;20469;-65
2021/06/29 09:44:03;;;;;;;2.37;2.17;;;29.00;98.80;;;;;;5011615;28;20421;-65
2021/06/29 09:46:28;;;;;;;3.00;2.00;;;28.40;98.40;;;;;;5019850;28;20695;-66
2021/06/29 09:48:58;;;;;;;2.17;2.07;;;28.20;98.70;;;;;;5010636;28;20433;-66
2021/06/29 09:51:27;;;;;;;2.77;2.57;;;28.50;98.60;;;;;;5013239;28;20209;-65
2021/06/29 09:53:55;;;;;;;3.03;2.23;;;29.20;98.20;;;;;;5006214;28;20722;-65
2021/06/29 09:56:25;;;;;;;2.03;1.93;;;29.80;97.60;;;;;;5006085;28;20814;-65
2021/06/29 09:58:55;;;;;;;1.87;1.77;;;30.20;96.40;;;;;;4999995;28;20427;-65
2021/06/29 10:01:26;;;;;;;2.10;2.00;;;30.70;95.20;;;;;;4998293;28;20433;-65
2021/06/29 10:03:53;;;;;;;3.70;3.40;;;31.80;93.30;;;;;;5015268;28;20775;-65
2021/06/29 10:06:25;;;;;;;2.63;2.43;;;32.20;92.60;;;;;;5015205;28;20414;-65
2021/06/29 10:09:01;;;;;;;2.40;2.20;;;32.40;90.90;;;;;;5015089;28;20418;-65
2021/06/29 10:11:31;;;;;;;2.60;2.40;;;31.90;91.80;;;;;;5015035;28;21021;-65
2021/06/29 10:13:59;;;;;;;2.37;2.17;;;33.30;90.70;;;;;;5015048;28;20943;-65
2021/06/29 10:16:28;;;;;;;2.03;1.93;;;34.80;86.90;;;;;;5015173;28;20497;-65
2021/06/29 10:21:26;;;;;;;1.97;1.87;;;36.70;75.40;;;;;;5014587;28;20469;-64
2021/06/29 10:23:58;;;;;;;2.00;1.90;;;36.40;73.30;;;;;;5014813;28;20841;-64
2021/06/29 10:26:26;;;;;;;2.37;2.27;;;35.80;70.80;;;;;;5014759;28;20415;-63
2021/06/29 10:28:52;;;;;;;2.40;2.30;;;35.30;72.50;;;;;;5013865;28;20488;-63
2021/06/29 10:31:21;;;;;;;2.90;2.10;;;34.50;72.80;;;;;;5014596;28;20484;-61
2021/06/29 10:33:48;;;;;;;2.40;2.20;;;34.20;71.90;;;;;;5014532;28;20794;-63
2021/06/29 10:36:15;;;;;;;2.30;2.20;;;34.80;70.50;;;;;;5014564;28;20426;-62
2021/06/29 10:38:41;;;;;;;2.10;1.90;;;36.30;69.00;;;;;;5028065;28;20471;-63
2021/06/29 10:41:07;;;;;;;2.90;2.70;;;37.10;67.90;;;;;;5013595;28;20461;-67
2021/06/29 10:43:37;;;;;;;3.93;2.30;;;38.50;63.00;;;;;;4994966;28;20415;-65
2021/06/29 10:46:35;;;;;;;2.10;2.00;;;38.40;58.50;;;;;;5001853;28;20179;-65
2021/06/29 10:49:36;;;;;;;2.27;2.17;;;38.50;58.60;;;;;;5014899;28;20453;-65
2021/06/29 10:52:06;;;;;;;1.80;1.70;;;39.40;59.60;;;;;;5014423;28;20468;-65
2021/06/29 10:54:34;;;;;;;2.53;2.33;;;41.20;55.30;;;;;;5029662;28;20475;-63
2021/06/29 10:57:06;;;;;;;2.10;2.00;;;41.90;54.10;;;;;;5017840;28;20421;-63
2021/06/29 10:59:34;;;;;;;2.33;1.80;;;42.50;51.60;;;;;;5026655;28;20512;-63
2021/06/29 11:02:00;;;;;;;1.90;1.80;;;43.60;49.10;;;;;;5013471;28;20456;-63
2021/06/29 11:04:47;;;;;;;2.03;1.90;;;42.70;48.40;;;;;;5017107;28;20511;-63
2021/06/29 11:07:27;;;;;;;2.40;2.30;;;43.20;47.60;;;;;;5026786;28;21289;-63
2021/06/29 11:09:55;;;;;;;2.07;1.97;;;40.40;46.40;;;;;;5011128;28;20919;-63
2021/06/29 11:12:23;;;;;;;2.60;2.40;;;38.10;49.40;;;;;;5012097;28;20540;-65
2021/06/29 11:14:51;;;;;;;1.90;1.80;;;38.10;51.20;;;;;;5019212;28;20761;-65
2021/06/29 11:17:18;;;;;;;2.70;2.00;;;39.70;50.10;;;;;;5027798;28;20418;-65
2021/06/29 11:20:14;;;;;;;2.40;2.30;;;42.30;47.90;;;;;;5009960;28;20927;-65
2021/06/29 11:22:51;;;;;;;2.50;2.40;;;44.50;44.70;;;;;;5017479;28;20428;-64
2021/06/29 11:25:29;;;;;;;2.17;2.07;;;43.70;44.20;;;;;;5010903;28;20433;-65
2021/06/29 11:28:09;;;;;;;2.77;2.63;;;41.70;45.90;;;;;;5026862;28;20425;-65
2021/06/29 11:30:50;;;;;;;2.20;2.10;;;39.90;46.60;;;;;;5020503;28;20481;-65
2021/06/29 11:33:34;;;;;;;2.40;2.20;;;38.60;48.10;;;;;;5017920;28;20965;-65
2021/06/29 11:36:01;;;;;;;2.13;2.03;;;38.40;48.90;;;;;;5024848;28;20409;-65
2021/06/29 11:38:45;;;;;;;2.30;2.20;;;38.70;48.70;;;;;;5016561;28;20436;-65
2021/06/29 11:41:29;;;;;;;2.17;2.07;;;39.40;47.70;;;;;;5016227;28;20475;-65
2021/06/29 11:43:57;;;;;;;2.17;1.97;;;39.50;47.10;;;;;;5025032;28;20424;-65
2021/06/29 11:46:44;;;;;;;3.10;2.73;;;38.30;48.40;;;;;;5010690;28;20449;-65
2021/06/29 11:49:11;;;;;;;2.87;2.53;;;36.90;50.10;;;;;;5019441;28;20422;-65
2021/06/29 11:52:06;;;;;;;2.80;2.50;;;35.90;51.70;;;;;;5012132;28;20465;-65
2021/06/29 11:54:36;;;;;;;3.13;2.73;;;35.20;52.70;;;;;;5014336;28;20520;-65
2021/06/29 11:57:17;;;;;;;2.50;2.40;;;34.90;52.80;;;;;;5022061;28;20910;-65
2021/06/29 11:59:43;;;;;;;3.53;3.20;;;34.00;53.70;;;;;;5015864;28;20910;-65
2021/06/29 12:02:16;;;;;;;3.00;2.80;;;34.00;54.90;;;;;;5019707;28;20437;-65
2021/06/29 12:05:03;;;;;;;2.57;2.37;;;35.80;52.50;;;;;;5026689;28;20571;-65
2021/06/29 12:07:45;;;;;;;3.40;3.10;;;37.50;50.60;;;;;;5015891;28;20436;-65
2021/06/29 12:10:28;;;;;;;3.37;3.17;;;38.50;50.00;;;;;;5011935;28;20445;-65
2021/06/29 12:12:59;;;;;;;3.30;2.80;;;38.60;49.10;;;;;;5008936;28;20469;-65
2021/06/29 12:15:39;;;;;;;3.10;2.90;;;39.60;48.80;;;;;;5014981;28;20414;-65
2021/06/29 12:18:13;;;;;;;2.73;2.60;;;41.00;46.50;;;;;;5017273;28;20900;-65
2021/06/29 12:20:54;;;;;;;3.07;2.87;;;40.80;45.80;;;;;;5023053;28;20444;-65
2021/06/29 12:23:40;;;;;;;3.17;2.97;;;39.40;46.30;;;;;;5027959;28;20929;-65
2021/06/29 12:26:08;;;;;;;2.33;2.23;;;38.00;48.40;;;;;;5018511;28;20457;-65
2021/06/29 12:28:39;;;;;;;3.00;2.80;;;35.90;50.80;;;;;;5013271;28;20437;-65
2021/06/29 12:31:09;;;;;;;2.90;2.70;;;34.50;52.30;;;;;;5019798;28;20450;-65
2021/06/29 12:33:44;;;;;;;2.80;2.70;;;33.30;54.20;;;;;;5011859;28;20468;-65
2021/06/29 12:36:20;;;;;;;2.80;2.67;;;32.20;56.30;;;;;;5012892;28;20425;-64
2021/06/29 12:38:51;;;;;;;4.30;2.50;;;31.10;57.60;;;;;;5006752;28;20479;-65
2021/06/29 12:41:30;;;;;;;2.80;2.60;;;30.60;59.40;;;;;;5019095;28;20548;-65
2021/06/29 12:44:07;;;;;;;2.70;2.50;;;29.90;61.60;;;;;;5019585;28;20420;-64
2021/06/29 12:46:41;;;;;;;2.70;2.50;;;29.50;61.80;;;;;;5027420;28;20435;-64
2021/06/29 12:49:08;;;;;;;2.47;2.37;;;29.10;63.00;;;;;;5023547;28;20428;-64
2021/06/29 12:51:42;;;;;;;3.77;3.50;;;28.60;67.30;;;;;;5009643;28;20962;-65
2021/06/29 12:54:13;;;;;;;4.40;2.53;;;27.80;68.70;;;;;;5016256;28;20811;-66
2021/06/29 12:56:41;;;;;;;6.00;3.00;;;26.10;90.40;;;;;;5022027;28;20485;-65